sensor_id;sensor_type;location;lat;lon;timestamp;temperature;humidity
13796;SHT30;40911;51.552;9.874;2023-07-13T00:02:36;18.36;74.10
13796;SHT30;40911;51.552;9.874;2023-07-13T00:05:59;18.17;75.33
13796;SHT30;40911;51.552;9.874;2023-07-13T00:15:26;18.57;74.00
13796;SHT30;40911;51.552;9.874;2023-07-13T00:17:50;18.55;74.14
13796;SHT30;40911;51.552;9.874;2023-07-13T00:20:12;18.57;74.33
13796;SHT30;40911;51.552;9.874;2023-07-13T00:22:34;18.66;74.57
13796;SHT30;40911;51.552;9.874;2023-07-13T00:24:55;18.65;74.16
13796;SHT30;40911;51.552;9.874;2023-07-13T00:27:18;18.39;74.86
13796;SHT30;40911;51.552;9.874;2023-07-13T00:29:39;18.69;73.92
13796;SHT30;40911;51.552;9.874;2023-07-13T00:32:04;18.57;74.05
13796;SHT30;40911;51.552;9.874;2023-07-13T00:34:26;18.73;74.36
13796;SHT30;40911;51.552;9.874;2023-07-13T00:36:47;18.84;73.95
13796;SHT30;40911;51.552;9.874;2023-07-13T00:39:09;18.70;74.63
13796;SHT30;40911;51.552;9.874;2023-07-13T00:41:32;18.70;74.85
13796;SHT30;40911;51.552;9.874;2023-07-13T00:43:53;18.46;75.78
13796;SHT30;40911;51.552;9.874;2023-07-13T00:46:22;18.69;75.28
13796;SHT30;40911;51.552;9.874;2023-07-13T00:48:47;18.67;75.46
13796;SHT30;40911;51.552;9.874;2023-07-13T00:51:10;18.69;75.41
13796;SHT30;40911;51.552;9.874;2023-07-13T00:53:33;18.77;75.46
13796;SHT30;40911;51.552;9.874;2023-07-13T00:55:56;18.67;75.71
13796;SHT30;40911;51.552;9.874;2023-07-13T00:58:18;18.67;75.67
13796;SHT30;40911;51.552;9.874;2023-07-13T01:00:40;18.62;75.90
13796;SHT30;40911;51.552;9.874;2023-07-13T01:03:02;18.41;76.47
13796;SHT30;40911;51.552;9.874;2023-07-13T01:05:26;17.62;78.92
13796;SHT30;40911;51.552;9.874;2023-07-13T01:07:49;17.91;78.27
13796;SHT30;40911;51.552;9.874;2023-07-13T01:10:13;17.91;78.27
13796;SHT30;40911;51.552;9.874;2023-07-13T01:12:34;18.36;77.02
13796;SHT30;40911;51.552;9.874;2023-07-13T01:14:57;18.45;76.74
13796;SHT30;40911;51.552;9.874;2023-07-13T01:17:20;18.49;76.73
13796;SHT30;40911;51.552;9.874;2023-07-13T01:19:44;18.49;76.60
13796;SHT30;40911;51.552;9.874;2023-07-13T01:22:09;18.12;77.58
13796;SHT30;40911;51.552;9.874;2023-07-13T01:24:33;17.97;78.39
13796;SHT30;40911;51.552;9.874;2023-07-13T01:26:55;18.41;77.25
13796;SHT30;40911;51.552;9.874;2023-07-13T01:29:17;18.33;77.25
13796;SHT30;40911;51.552;9.874;2023-07-13T01:31:38;18.29;77.35
13796;SHT30;40911;51.552;9.874;2023-07-13T01:34:00;18.44;76.97
13796;SHT30;40911;51.552;9.874;2023-07-13T01:36:22;18.28;77.75
13796;SHT30;40911;51.552;9.874;2023-07-13T01:38:45;18.44;77.11
13796;SHT30;40911;51.552;9.874;2023-07-13T01:41:07;18.41;77.18
13796;SHT30;40911;51.552;9.874;2023-07-13T01:43:29;18.10;78.56
13796;SHT30;40911;51.552;9.874;2023-07-13T01:45:51;18.25;77.90
13796;SHT30;40911;51.552;9.874;2023-07-13T01:48:13;18.12;78.41
13796;SHT30;40911;51.552;9.874;2023-07-13T01:50:35;18.17;78.34
13796;SHT30;40911;51.552;9.874;2023-07-13T01:52:57;18.10;78.86
13796;SHT30;40911;51.552;9.874;2023-07-13T01:55:20;18.05;78.73
13796;SHT30;40911;51.552;9.874;2023-07-13T01:57:42;18.17;78.59
13796;SHT30;40911;51.552;9.874;2023-07-13T02:00:05;18.18;78.56
13796;SHT30;40911;51.552;9.874;2023-07-13T02:02:27;17.86;79.39
13796;SHT30;40911;51.552;9.874;2023-07-13T02:04:48;17.89;79.44
13796;SHT30;40911;51.552;9.874;2023-07-13T02:07:10;18.21;78.45
13796;SHT30;40911;51.552;9.874;2023-07-13T02:09:32;18.02;79.65
13796;SHT30;40911;51.552;9.874;2023-07-13T02:11:55;17.29;81.32
13796;SHT30;40911;51.552;9.874;2023-07-13T02:14:17;17.76;80.44
13796;SHT30;40911;51.552;9.874;2023-07-13T02:16:38;17.80;80.18
13796;SHT30;40911;51.552;9.874;2023-07-13T02:19:00;17.81;79.87
13796;SHT30;40911;51.552;9.874;2023-07-13T02:21:22;17.59;80.89
13796;SHT30;40911;51.552;9.874;2023-07-13T02:23:44;17.43;81.30
13796;SHT30;40911;51.552;9.874;2023-07-13T02:26:06;17.70;80.31
13796;SHT30;40911;51.552;9.874;2023-07-13T02:28:29;17.63;80.67
13796;SHT30;40911;51.552;9.874;2023-07-13T02:30:51;17.56;80.87
13796;SHT30;40911;51.552;9.874;2023-07-13T02:33:13;17.53;80.58
13796;SHT30;40911;51.552;9.874;2023-07-13T02:35:35;17.46;80.64
13796;SHT30;40911;51.552;9.874;2023-07-13T02:37:56;17.21;81.71
13796;SHT30;40911;51.552;9.874;2023-07-13T02:40:18;17.10;81.95
13796;SHT30;40911;51.552;9.874;2023-07-13T02:42:40;17.04;82.21
13796;SHT30;40911;51.552;9.874;2023-07-13T02:45:04;17.08;81.89
13796;SHT30;40911;51.552;9.874;2023-07-13T02:47:26;16.77;82.61
13796;SHT30;40911;51.552;9.874;2023-07-13T02:49:48;16.93;82.11
13796;SHT30;40911;51.552;9.874;2023-07-13T02:52:10;16.93;81.15
13796;SHT30;40911;51.552;9.874;2023-07-13T02:54:32;16.73;80.31
13796;SHT30;40911;51.552;9.874;2023-07-13T02:56:53;16.85;80.55
13796;SHT30;40911;51.552;9.874;2023-07-13T02:59:15;16.85;80.16
13796;SHT30;40911;51.552;9.874;2023-07-13T03:01:38;17.04;80.03
13796;SHT30;40911;51.552;9.874;2023-07-13T03:04:01;16.95;80.51
13796;SHT30;40911;51.552;9.874;2023-07-13T03:06:22;16.45;82.87
13796;SHT30;40911;51.552;9.874;2023-07-13T03:08:45;16.67;82.17
13796;SHT30;40911;51.552;9.874;2023-07-13T03:11:08;16.71;81.90
13796;SHT30;40911;51.552;9.874;2023-07-13T03:13:31;16.73;82.18
13796;SHT30;40911;51.552;9.874;2023-07-13T03:15:53;16.77;81.95
13796;SHT30;40911;51.552;9.874;2023-07-13T03:18:16;16.78;81.69
13796;SHT30;40911;51.552;9.874;2023-07-13T03:20:37;16.87;81.35
13796;SHT30;40911;51.552;9.874;2023-07-13T03:22:59;16.80;81.61
13796;SHT30;40911;51.552;9.874;2023-07-13T03:25:21;16.40;82.74
13796;SHT30;40911;51.552;9.874;2023-07-13T03:27:42;16.02;84.34
13796;SHT30;40911;51.552;9.874;2023-07-13T03:30:04;16.05;84.41
13796;SHT30;40911;51.552;9.874;2023-07-13T03:32:26;15.63;85.38
13796;SHT30;40911;51.552;9.874;2023-07-13T03:34:49;16.15;83.73
13796;SHT30;40911;51.552;9.874;2023-07-13T03:37:11;15.97;84.31
13796;SHT30;40911;51.552;9.874;2023-07-13T03:39:32;16.01;83.88
13796;SHT30;40911;51.552;9.874;2023-07-13T03:41:54;16.14;83.39
13796;SHT30;40911;51.552;9.874;2023-07-13T03:44:16;16.07;84.01
13796;SHT30;40911;51.552;9.874;2023-07-13T03:46:38;16.25;83.54
13796;SHT30;40911;51.552;9.874;2023-07-13T03:49:01;16.33;83.14
13796;SHT30;40911;51.552;9.874;2023-07-13T03:51:24;16.28;83.36
13796;SHT30;40911;51.552;9.874;2023-07-13T03:53:47;16.35;83.18
13796;SHT30;40911;51.552;9.874;2023-07-13T03:56:10;16.38;82.97
13796;SHT30;40911;51.552;9.874;2023-07-13T03:58:34;16.22;83.69
13796;SHT30;40911;51.552;9.874;2023-07-13T04:00:55;16.21;83.51
13796;SHT30;40911;51.552;9.874;2023-07-13T04:03:17;15.99;83.98
13796;SHT30;40911;51.552;9.874;2023-07-13T04:05:39;16.25;82.77
13796;SHT30;40911;51.552;9.874;2023-07-13T04:08:03;16.32;82.27
13796;SHT30;40911;51.552;9.874;2023-07-13T04:10:24;16.38;81.81
13796;SHT30;40911;51.552;9.874;2023-07-13T04:12:46;16.38;81.73
13796;SHT30;40911;51.552;9.874;2023-07-13T04:15:08;16.12;82.78
13796;SHT30;40911;51.552;9.874;2023-07-13T04:17:30;16.45;81.98
13796;SHT30;40911;51.552;9.874;2023-07-13T04:19:51;16.28;82.32
13796;SHT30;40911;51.552;9.874;2023-07-13T04:22:13;16.45;80.90
13796;SHT30;40911;51.552;9.874;2023-07-13T04:24:36;16.36;79.99
13796;SHT30;40911;51.552;9.874;2023-07-13T04:26:58;16.47;79.47
13796;SHT30;40911;51.552;9.874;2023-07-13T04:29:20;16.47;79.20
13796;SHT30;40911;51.552;9.874;2023-07-13T04:31:42;16.59;79.01
13796;SHT30;40911;51.552;9.874;2023-07-13T04:34:05;16.61;78.44
13796;SHT30;40911;51.552;9.874;2023-07-13T04:36:27;16.71;78.13
13796;SHT30;40911;51.552;9.874;2023-07-13T04:38:48;16.74;78.17
13796;SHT30;40911;51.552;9.874;2023-07-13T04:41:12;16.73;78.74
13796;SHT30;40911;51.552;9.874;2023-07-13T04:43:35;16.88;77.62
13796;SHT30;40911;51.552;9.874;2023-07-13T04:45:57;16.88;77.51
13796;SHT30;40911;51.552;9.874;2023-07-13T04:48:19;16.78;77.84
13796;SHT30;40911;51.552;9.874;2023-07-13T04:50:41;16.84;77.57
13796;SHT30;40911;51.552;9.874;2023-07-13T04:53:04;16.98;78.16
13796;SHT30;40911;51.552;9.874;2023-07-13T04:55:34;17.04;77.46
13796;SHT30;40911;51.552;9.874;2023-07-13T04:57:58;17.16;77.37
13796;SHT30;40911;51.552;9.874;2023-07-13T05:00:20;17.26;76.98
13796;SHT30;40911;51.552;9.874;2023-07-13T05:02:44;17.15;76.63
13796;SHT30;40911;51.552;9.874;2023-07-13T05:05:07;17.40;76.32
13796;SHT30;40911;51.552;9.874;2023-07-13T05:07:28;17.39;76.41
13796;SHT30;40911;51.552;9.874;2023-07-13T05:09:49;17.60;75.78
13796;SHT30;40911;51.552;9.874;2023-07-13T05:12:11;17.46;75.63
13796;SHT30;40911;51.552;9.874;2023-07-13T05:14:34;17.66;75.42
13796;SHT30;40911;51.552;9.874;2023-07-13T05:16:56;17.77;75.15
13796;SHT30;40911;51.552;9.874;2023-07-13T05:19:18;17.76;74.84
13796;SHT30;40911;51.552;9.874;2023-07-13T05:21:39;17.73;74.66
13796;SHT30;40911;51.552;9.874;2023-07-13T05:24:01;17.74;73.94
13796;SHT30;40911;51.552;9.874;2023-07-13T05:26:22;17.97;74.14
13796;SHT30;40911;51.552;9.874;2023-07-13T05:28:44;18.26;73.93
13796;SHT30;40911;51.552;9.874;2023-07-13T05:31:08;18.33;73.25
13796;SHT30;40911;51.552;9.874;2023-07-13T05:33:30;18.42;72.60
13796;SHT30;40911;51.552;9.874;2023-07-13T05:35:52;18.25;71.68
13796;SHT30;40911;51.552;9.874;2023-07-13T05:38:14;18.52;71.97
13796;SHT30;40911;51.552;9.874;2023-07-13T05:40:35;18.79;71.57
13796;SHT30;40911;51.552;9.874;2023-07-13T05:42:57;18.87;71.57
13796;SHT30;40911;51.552;9.874;2023-07-13T05:45:19;18.55;70.98
13796;SHT30;40911;51.552;9.874;2023-07-13T05:47:42;18.84;70.59
13796;SHT30;40911;51.552;9.874;2023-07-13T05:50:04;18.87;70.35
13796;SHT30;40911;51.552;9.874;2023-07-13T05:52:26;19.30;69.97
13796;SHT30;40911;51.552;9.874;2023-07-13T05:54:48;19.42;69.80
13796;SHT30;40911;51.552;9.874;2023-07-13T05:57:10;18.83;68.45
13796;SHT30;40911;51.552;9.874;2023-07-13T05:59:31;19.39;69.52
13796;SHT30;40911;51.552;9.874;2023-07-13T06:01:53;19.27;68.19
13796;SHT30;40911;51.552;9.874;2023-07-13T06:04:16;19.25;68.49
13796;SHT30;40911;51.552;9.874;2023-07-13T06:06:38;19.91;68.42
13796;SHT30;40911;51.552;9.874;2023-07-13T06:08:59;20.04;67.33
13796;SHT30;40911;51.552;9.874;2023-07-13T06:11:25;19.86;66.96
13796;SHT30;40911;51.552;9.874;2023-07-13T06:13:47;19.99;66.76
13796;SHT30;40911;51.552;9.874;2023-07-13T06:16:10;20.07;67.28
13796;SHT30;40911;51.552;9.874;2023-07-13T06:18:32;20.20;67.29
13796;SHT30;40911;51.552;9.874;2023-07-13T06:20:56;19.83;67.02
13796;SHT30;40911;51.552;9.874;2023-07-13T06:23:17;20.07;66.72
13796;SHT30;40911;51.552;9.874;2023-07-13T06:25:40;20.07;65.95
13796;SHT30;40911;51.552;9.874;2023-07-13T06:28:02;19.99;66.10
13796;SHT30;40911;51.552;9.874;2023-07-13T06:30:23;19.96;66.14
13796;SHT30;40911;51.552;9.874;2023-07-13T06:32:45;20.34;65.81
13796;SHT30;40911;51.552;9.874;2023-07-13T06:35:07;20.53;65.37
13796;SHT30;40911;51.552;9.874;2023-07-13T06:37:34;20.45;65.84
13796;SHT30;40911;51.552;9.874;2023-07-13T06:39:55;20.83;65.92
13796;SHT30;40911;51.552;9.874;2023-07-13T06:42:17;20.13;66.37
13796;SHT30;40911;51.552;9.874;2023-07-13T06:44:39;20.71;66.24
13796;SHT30;40911;51.552;9.874;2023-07-13T06:47:00;20.73;64.45
13796;SHT30;40911;51.552;9.874;2023-07-13T06:49:22;20.52;64.65
13796;SHT30;40911;51.552;9.874;2023-07-13T06:51:44;20.65;64.35
13796;SHT30;40911;51.552;9.874;2023-07-13T06:54:07;20.22;64.84
13796;SHT30;40911;51.552;9.874;2023-07-13T06:56:28;20.41;64.39
13796;SHT30;40911;51.552;9.874;2023-07-13T06:58:50;20.52;65.92
13796;SHT30;40911;51.552;9.874;2023-07-13T07:01:12;21.13;64.25
13796;SHT30;40911;51.552;9.874;2023-07-13T07:03:35;20.65;64.04
13796;SHT30;40911;51.552;9.874;2023-07-13T07:06:00;20.82;64.16
13796;SHT30;40911;51.552;9.874;2023-07-13T07:08:22;21.02;64.04
13796;SHT30;40911;51.552;9.874;2023-07-13T07:10:45;20.85;63.73
13796;SHT30;40911;51.552;9.874;2023-07-13T07:13:07;21.23;64.42
13796;SHT30;40911;51.552;9.874;2023-07-13T07:15:28;20.93;63.13
13796;SHT30;40911;51.552;9.874;2023-07-13T07:17:50;20.52;64.22
13796;SHT30;40911;51.552;9.874;2023-07-13T07:20:12;20.75;64.03
13796;SHT30;40911;51.552;9.874;2023-07-13T07:22:34;21.17;63.96
13796;SHT30;40911;51.552;9.874;2023-07-13T07:24:55;21.08;63.89
13796;SHT30;40911;51.552;9.874;2023-07-13T07:27:19;21.02;63.04
13796;SHT30;40911;51.552;9.874;2023-07-13T07:29:41;21.07;62.68
13796;SHT30;40911;51.552;9.874;2023-07-13T07:32:03;21.42;63.05
13796;SHT30;40911;51.552;9.874;2023-07-13T07:34:25;21.52;62.58
13796;SHT30;40911;51.552;9.874;2023-07-13T07:36:46;20.89;61.99
13796;SHT30;40911;51.552;9.874;2023-07-13T07:39:08;21.38;62.26
13796;SHT30;40911;51.552;9.874;2023-07-13T07:41:29;20.96;62.21
13796;SHT30;40911;51.552;9.874;2023-07-13T07:43:53;21.18;62.72
13796;SHT30;40911;51.552;9.874;2023-07-13T07:46:14;21.45;62.23
13796;SHT30;40911;51.552;9.874;2023-07-13T07:48:36;21.75;61.05
13796;SHT30;40911;51.552;9.874;2023-07-13T07:50:58;21.85;62.57
13796;SHT30;40911;51.552;9.874;2023-07-13T07:53:19;22.36;62.95
13796;SHT30;40911;51.552;9.874;2023-07-13T07:55:41;22.14;60.80
13796;SHT30;40911;51.552;9.874;2023-07-13T07:58:03;22.24;59.97
13796;SHT30;40911;51.552;9.874;2023-07-13T08:00:26;22.74;60.24
13796;SHT30;40911;51.552;9.874;2023-07-13T08:02:51;22.68;59.34
13796;SHT30;40911;51.552;9.874;2023-07-13T08:05:13;21.95;60.38
13796;SHT30;40911;51.552;9.874;2023-07-13T08:07:36;22.28;59.90
13796;SHT30;40911;51.552;9.874;2023-07-13T08:09:58;22.69;58.98
13796;SHT30;40911;51.552;9.874;2023-07-13T08:12:20;22.21;59.64
13796;SHT30;40911;51.552;9.874;2023-07-13T08:14:41;21.72;60.84
13796;SHT30;40911;51.552;9.874;2023-07-13T08:17:04;21.89;61.32
13796;SHT30;40911;51.552;9.874;2023-07-13T08:19:26;22.45;60.60
13796;SHT30;40911;51.552;9.874;2023-07-13T08:21:48;21.73;61.42
13796;SHT30;40911;51.552;9.874;2023-07-13T08:24:10;21.99;60.95
13796;SHT30;40911;51.552;9.874;2023-07-13T08:26:31;22.47;60.33
13796;SHT30;40911;51.552;9.874;2023-07-13T08:28:53;22.85;59.92
13796;SHT30;40911;51.552;9.874;2023-07-13T08:31:15;21.90;60.45
13796;SHT30;40911;51.552;9.874;2023-07-13T08:33:38;22.36;59.34
13796;SHT30;40911;51.552;9.874;2023-07-13T08:36:01;22.86;58.72
13796;SHT30;40911;51.552;9.874;2023-07-13T08:38:23;23.00;59.32
13796;SHT30;40911;51.552;9.874;2023-07-13T08:40:49;23.27;57.93
13796;SHT30;40911;51.552;9.874;2023-07-13T08:43:15;23.19;58.31
13796;SHT30;40911;51.552;9.874;2023-07-13T08:45:42;23.12;58.78
13796;SHT30;40911;51.552;9.874;2023-07-13T08:48:08;22.54;58.26
13796;SHT30;40911;51.552;9.874;2023-07-13T08:50:35;23.34;58.19
13796;SHT30;40911;51.552;9.874;2023-07-13T08:53:01;23.78;57.95
13796;SHT30;40911;51.552;9.874;2023-07-13T08:55:27;23.26;57.89
13796;SHT30;40911;51.552;9.874;2023-07-13T08:57:56;23.02;58.00
13796;SHT30;40911;51.552;9.874;2023-07-13T09:00:21;23.54;58.43
13796;SHT30;40911;51.552;9.874;2023-07-13T09:02:48;22.79;58.26
13796;SHT30;40911;51.552;9.874;2023-07-13T09:05:17;23.20;57.60
13796;SHT30;40911;51.552;9.874;2023-07-13T09:07:49;23.44;58.03
13796;SHT30;40911;51.552;9.874;2023-07-13T09:10:15;22.88;58.86
13796;SHT30;40911;51.552;9.874;2023-07-13T09:12:45;22.61;58.93
13796;SHT30;40911;51.552;9.874;2023-07-13T09:15:21;23.20;58.28
13796;SHT30;40911;51.552;9.874;2023-07-13T09:17:49;23.47;57.43
13796;SHT30;40911;51.552;9.874;2023-07-13T09:20:19;23.84;57.98
13796;SHT30;40911;51.552;9.874;2023-07-13T09:22:45;23.50;55.72
13796;SHT30;40911;51.552;9.874;2023-07-13T09:25:21;23.43;57.78
13796;SHT30;40911;51.552;9.874;2023-07-13T09:27:45;23.02;58.91
13796;SHT30;40911;51.552;9.874;2023-07-13T09:30:26;23.15;58.43
13796;SHT30;40911;51.552;9.874;2023-07-13T09:32:52;23.11;59.38
13796;SHT30;40911;51.552;9.874;2023-07-13T09:35:16;22.94;58.76
13796;SHT30;40911;51.552;9.874;2023-07-13T09:37:38;23.34;58.21
13796;SHT30;40911;51.552;9.874;2023-07-13T09:40:05;23.32;58.08
13796;SHT30;40911;51.552;9.874;2023-07-13T09:42:32;23.95;57.68
13796;SHT30;40911;51.552;9.874;2023-07-13T09:44:55;23.84;57.36
13796;SHT30;40911;51.552;9.874;2023-07-13T09:47:18;23.09;57.13
13796;SHT30;40911;51.552;9.874;2023-07-13T09:49:43;24.42;55.45
13796;SHT30;40911;51.552;9.874;2023-07-13T09:52:10;23.94;57.43
13796;SHT30;40911;51.552;9.874;2023-07-13T09:54:33;25.11;55.37
13796;SHT30;40911;51.552;9.874;2023-07-13T09:56:58;24.74;54.58
13796;SHT30;40911;51.552;9.874;2023-07-13T09:59:21;24.67;54.68
13796;SHT30;40911;51.552;9.874;2023-07-13T10:01:44;24.09;54.88
13796;SHT30;40911;51.552;9.874;2023-07-13T10:04:11;24.68;54.40
13796;SHT30;40911;51.552;9.874;2023-07-13T10:06:33;25.46;54.33
13796;SHT30;40911;51.552;9.874;2023-07-13T10:08:56;25.12;54.00
13796;SHT30;40911;51.552;9.874;2023-07-13T10:11:20;24.60;54.72
13796;SHT30;40911;51.552;9.874;2023-07-13T10:13:48;24.93;54.11
13796;SHT30;40911;51.552;9.874;2023-07-13T10:16:13;24.36;54.80
13796;SHT30;40911;51.552;9.874;2023-07-13T10:18:39;23.91;55.43
13796;SHT30;40911;51.552;9.874;2023-07-13T10:21:13;24.36;54.99
13796;SHT30;40911;51.552;9.874;2023-07-13T10:23:35;23.81;55.65
13796;SHT30;40911;51.552;9.874;2023-07-13T10:25:59;24.46;55.71
13796;SHT30;40911;51.552;9.874;2023-07-13T10:28:25;24.15;54.07
13796;SHT30;40911;51.552;9.874;2023-07-13T10:30:52;24.42;53.87
13796;SHT30;40911;51.552;9.874;2023-07-13T10:33:14;24.66;53.36
13796;SHT30;40911;51.552;9.874;2023-07-13T10:35:36;24.43;53.97
13796;SHT30;40911;51.552;9.874;2023-07-13T10:38:01;24.05;53.85
13796;SHT30;40911;51.552;9.874;2023-07-13T10:40:30;25.73;52.68
13796;SHT30;40911;51.552;9.874;2023-07-13T10:42:56;24.39;53.49
13796;SHT30;40911;51.552;9.874;2023-07-13T10:45:20;24.74;54.80
13796;SHT30;40911;51.552;9.874;2023-07-13T10:47:45;24.88;56.34
13796;SHT30;40911;51.552;9.874;2023-07-13T10:50:09;24.33;56.03
13796;SHT30;40911;51.552;9.874;2023-07-13T10:52:42;23.50;56.32
13796;SHT30;40911;51.552;9.874;2023-07-13T10:55:04;23.22;57.76
13796;SHT30;40911;51.552;9.874;2023-07-13T10:57:27;23.98;56.44
13796;SHT30;40911;51.552;9.874;2023-07-13T11:00:13;24.10;56.13
13796;SHT30;40911;51.552;9.874;2023-07-13T11:02:35;23.97;56.42
13796;SHT30;40911;51.552;9.874;2023-07-13T11:05:16;23.73;56.68
13796;SHT30;40911;51.552;9.874;2023-07-13T11:07:53;23.81;56.30
13796;SHT30;40911;51.552;9.874;2023-07-13T11:10:48;24.32;55.41
13796;SHT30;40911;51.552;9.874;2023-07-13T11:13:37;24.05;56.26
13796;SHT30;40911;51.552;9.874;2023-07-13T11:15:59;23.33;55.81
13796;SHT30;40911;51.552;9.874;2023-07-13T11:18:23;23.77;56.16
13796;SHT30;40911;51.552;9.874;2023-07-13T11:20:48;24.53;54.85
13796;SHT30;40911;51.552;9.874;2023-07-13T11:23:28;25.00;55.18
13796;SHT30;40911;51.552;9.874;2023-07-13T11:25:51;25.80;54.50
13796;SHT30;40911;51.552;9.874;2023-07-13T11:28:21;24.75;55.43
13796;SHT30;40911;51.552;9.874;2023-07-13T11:30:46;25.80;53.90
13796;SHT30;40911;51.552;9.874;2023-07-13T11:33:17;25.76;55.27
13796;SHT30;40911;51.552;9.874;2023-07-13T11:35:57;24.98;53.62
13796;SHT30;40911;51.552;9.874;2023-07-13T11:38:22;25.31;54.00
13796;SHT30;40911;51.552;9.874;2023-07-13T11:40:45;25.81;53.76
13796;SHT30;40911;51.552;9.874;2023-07-13T11:43:07;25.60;53.82
13796;SHT30;40911;51.552;9.874;2023-07-13T11:45:30;25.43;53.62
13796;SHT30;40911;51.552;9.874;2023-07-13T11:47:52;25.88;52.89
13796;SHT30;40911;51.552;9.874;2023-07-13T11:50:19;25.81;52.46
13796;SHT30;40911;51.552;9.874;2023-07-13T11:52:43;24.94;53.35
13796;SHT30;40911;51.552;9.874;2023-07-13T11:55:14;24.56;53.21
13796;SHT30;40911;51.552;9.874;2023-07-13T11:57:40;25.08;53.58
13796;SHT30;40911;51.552;9.874;2023-07-13T12:00:10;25.02;54.19
13796;SHT30;40911;51.552;9.874;2023-07-13T12:02:35;24.91;53.57
13796;SHT30;40911;51.552;9.874;2023-07-13T12:04:58;26.32;52.10
13796;SHT30;40911;51.552;9.874;2023-07-13T12:07:20;25.90;52.23
13796;SHT30;40911;51.552;9.874;2023-07-13T12:09:43;26.46;52.35
13796;SHT30;40911;51.552;9.874;2023-07-13T12:12:11;25.97;52.53
13796;SHT30;40911;51.552;9.874;2023-07-13T12:14:33;25.08;54.21
13796;SHT30;40911;51.552;9.874;2023-07-13T12:16:55;26.38;54.52
13796;SHT30;40911;51.552;9.874;2023-07-13T12:19:20;26.28;51.53
13796;SHT30;40911;51.552;9.874;2023-07-13T12:21:43;25.91;50.26
13796;SHT30;40911;51.552;9.874;2023-07-13T12:24:14;25.58;51.58
13796;SHT30;40911;51.552;9.874;2023-07-13T12:26:37;24.93;53.14
13796;SHT30;40911;51.552;9.874;2023-07-13T12:29:00;25.42;51.74
13796;SHT30;40911;51.552;9.874;2023-07-13T12:31:26;27.03;50.84
13796;SHT30;40911;51.552;9.874;2023-07-13T12:33:48;26.74;51.02
13796;SHT30;40911;51.552;9.874;2023-07-13T12:36:12;25.36;53.83
13796;SHT30;40911;51.552;9.874;2023-07-13T12:38:33;25.32;53.12
13796;SHT30;40911;51.552;9.874;2023-07-13T12:40:55;26.01;51.86
13796;SHT30;40911;51.552;9.874;2023-07-13T12:43:20;26.32;51.61
13796;SHT30;40911;51.552;9.874;2023-07-13T12:45:55;26.70;52.13
13796;SHT30;40911;51.552;9.874;2023-07-13T12:48:18;26.28;51.37
13796;SHT30;40911;51.552;9.874;2023-07-13T12:50:43;26.25;51.89
13796;SHT30;40911;51.552;9.874;2023-07-13T12:53:27;26.28;51.04
13796;SHT30;40911;51.552;9.874;2023-07-13T12:55:54;25.91;51.77
13796;SHT30;40911;51.552;9.874;2023-07-13T12:58:24;25.66;53.49
13796;SHT30;40911;51.552;9.874;2023-07-13T13:00:51;25.26;53.30
13796;SHT30;40911;51.552;9.874;2023-07-13T13:03:22;25.63;53.57
13796;SHT30;40911;51.552;9.874;2023-07-13T13:05:45;25.11;53.06
13796;SHT30;40911;51.552;9.874;2023-07-13T13:08:08;25.12;53.35
13796;SHT30;40911;51.552;9.874;2023-07-13T13:10:32;25.02;54.98
13796;SHT30;40911;51.552;9.874;2023-07-13T13:12:53;25.94;51.96
13796;SHT30;40911;51.552;9.874;2023-07-13T13:15:17;26.24;50.36
13796;SHT30;40911;51.552;9.874;2023-07-13T13:17:39;25.26;50.35
13796;SHT30;40911;51.552;9.874;2023-07-13T13:20:01;25.90;49.58
13796;SHT30;40911;51.552;9.874;2023-07-13T13:22:23;26.09;50.53
13796;SHT30;40911;51.552;9.874;2023-07-13T13:24:45;26.56;49.42
13796;SHT30;40911;51.552;9.874;2023-07-13T13:27:13;25.93;51.15
13796;SHT30;40911;51.552;9.874;2023-07-13T13:29:38;26.18;50.74
13796;SHT30;40911;51.552;9.874;2023-07-13T13:32:02;27.00;50.76
13796;SHT30;40911;51.552;9.874;2023-07-13T13:34:26;26.48;50.97
13796;SHT30;40911;51.552;9.874;2023-07-13T13:36:48;25.31;52.36
13796;SHT30;40911;51.552;9.874;2023-07-13T13:39:22;25.94;51.00
13796;SHT30;40911;51.552;9.874;2023-07-13T13:41:48;25.07;52.08
13796;SHT30;40911;51.552;9.874;2023-07-13T13:44:10;25.73;51.41
13796;SHT30;40911;51.552;9.874;2023-07-13T13:46:32;26.25;49.84
13796;SHT30;40911;51.552;9.874;2023-07-13T13:48:55;26.15;50.99
13796;SHT30;40911;51.552;9.874;2023-07-13T13:51:19;26.25;48.95
13796;SHT30;40911;51.552;9.874;2023-07-13T13:53:41;25.63;50.88
13796;SHT30;40911;51.552;9.874;2023-07-13T13:56:04;24.68;50.78
13796;SHT30;40911;51.552;9.874;2023-07-13T13:58:26;24.64;52.34
13796;SHT30;40911;51.552;9.874;2023-07-13T14:00:48;25.23;52.89
13796;SHT30;40911;51.552;9.874;2023-07-13T14:03:14;24.67;51.95
13796;SHT30;40911;51.552;9.874;2023-07-13T14:05:38;24.30;53.34
13796;SHT30;40911;51.552;9.874;2023-07-13T14:08:00;24.53;53.77
13796;SHT30;40911;51.552;9.874;2023-07-13T14:10:22;24.74;52.87
13796;SHT30;40911;51.552;9.874;2023-07-13T14:12:44;24.32;54.34
13796;SHT30;40911;51.552;9.874;2023-07-13T14:15:14;24.84;53.36
13796;SHT30;40911;51.552;9.874;2023-07-13T14:17:39;24.70;53.44
13796;SHT30;40911;51.552;9.874;2023-07-13T14:20:01;25.02;52.90
13796;SHT30;40911;51.552;9.874;2023-07-13T14:22:35;24.61;53.08
13796;SHT30;40911;51.552;9.874;2023-07-13T14:24:58;24.35;53.91
13796;SHT30;40911;51.552;9.874;2023-07-13T14:27:26;24.43;53.70
13796;SHT30;40911;51.552;9.874;2023-07-13T14:29:48;24.54;53.94
13796;SHT30;40911;51.552;9.874;2023-07-13T14:32:11;24.13;54.08
13796;SHT30;40911;51.552;9.874;2023-07-13T14:34:33;24.18;53.46
13796;SHT30;40911;51.552;9.874;2023-07-13T14:36:55;24.33;53.34
13796;SHT30;40911;51.552;9.874;2023-07-13T14:39:19;24.32;53.09
13796;SHT30;40911;51.552;9.874;2023-07-13T14:41:41;24.18;53.22
13796;SHT30;40911;51.552;9.874;2023-07-13T14:44:10;23.98;53.63
13796;SHT30;40911;51.552;9.874;2023-07-13T14:46:34;23.94;53.18
13796;SHT30;40911;51.552;9.874;2023-07-13T14:49:01;24.06;53.73
13796;SHT30;40911;51.552;9.874;2023-07-13T14:51:24;23.94;53.66
13796;SHT30;40911;51.552;9.874;2023-07-13T14:53:45;23.99;54.93
13796;SHT30;40911;51.552;9.874;2023-07-13T14:56:11;24.18;54.57
13796;SHT30;40911;51.552;9.874;2023-07-13T14:58:37;24.26;53.55
13796;SHT30;40911;51.552;9.874;2023-07-13T15:01:01;24.01;53.52
13796;SHT30;40911;51.552;9.874;2023-07-13T15:03:25;24.29;54.37
13796;SHT30;40911;51.552;9.874;2023-07-13T15:05:47;24.33;54.05
13796;SHT30;40911;51.552;9.874;2023-07-13T15:08:09;23.71;55.02
13796;SHT30;40911;51.552;9.874;2023-07-13T15:10:33;24.02;54.98
13796;SHT30;40911;51.552;9.874;2023-07-13T15:13:00;24.12;55.20
13796;SHT30;40911;51.552;9.874;2023-07-13T15:15:24;24.13;55.93
13796;SHT30;40911;51.552;9.874;2023-07-13T15:17:48;24.29;55.95